Time;durP1;ratioP1;P1;durP2;ratioP2;P2;SDS_P1;SDS_P2;PMS_P1;PMS_P2;Temp;Humidity;BMP_temperature;BMP_pressure;BME280_temperature;BME280_humidity;BME280_pressure;Samples;Min_cycle;Max_cycle;Signal;HPM_P1;HPM_P2
2022/11/30 00:01:09;;;;;;;55.47;27.85;;;4.90;99.90;;;;;;5074808;28;20112;-75
2022/11/30 00:03:34;;;;;;;47.33;21.48;;;4.90;99.90;;;;;;5075040;28;20017;-74
2022/11/30 00:06:08;;;;;;;38.92;19.63;;;4.90;99.90;;;;;;5074852;28;20404;-74
2022/11/30 00:08:33;;;;;;;40.08;19.92;;;4.90;99.90;;;;;;5073869;28;20021;-75
2022/11/30 00:11:00;;;;;;;46.08;22.48;;;4.90;99.90;;;;;;5073575;28;20043;-74
2022/11/30 00:13:25;;;;;;;44.40;21.83;;;4.90;99.90;;;;;;5074441;28;20340;-73
2022/11/30 00:15:51;;;;;;;44.90;22.80;;;4.90;99.90;;;;;;5074340;28;20040;-74
2022/11/30 00:18:17;;;;;;;50.70;22.88;;;4.90;99.90;;;;;;5074652;28;20024;-75
2022/11/30 00:20:43;;;;;;;46.33;21.30;;;4.90;99.90;;;;;;5074761;28;20062;-73
2022/11/30 00:23:09;;;;;;;47.75;22.52;;;4.90;99.90;;;;;;5073487;28;20020;-75
2022/11/30 00:25:35;;;;;;;49.13;22.30;;;4.90;99.90;;;;;;5073261;28;20042;-75
2022/11/30 00:28:01;;;;;;;47.17;22.20;;;4.90;99.90;;;;;;5074021;28;20032;-75
2022/11/30 00:30:27;;;;;;;56.92;24.20;;;5.00;99.90;;;;;;5073453;28;20074;-76
2022/11/30 00:32:57;;;;;;;60.50;26.05;;;5.00;99.90;;;;;;5073260;28;20028;-75
2022/11/30 00:35:23;;;;;;;60.00;28.73;;;5.00;99.90;;;;;;5053990;28;20420;-75
2022/11/30 00:37:49;;;;;;;66.28;31.35;;;5.00;99.90;;;;;;5072423;28;20142;-75
2022/11/30 00:40:14;;;;;;;61.55;25.05;;;5.00;99.90;;;;;;5073554;28;20032;-74
2022/11/30 00:42:41;;;;;;;58.92;28.92;;;5.10;99.90;;;;;;5073206;28;20025;-75
2022/11/30 00:45:07;;;;;;;76.03;34.75;;;5.00;99.90;;;;;;5073513;28;20099;-75
2022/11/30 00:47:33;;;;;;;55.63;27.13;;;5.10;99.90;;;;;;5073937;28;20032;-75
2022/11/30 00:49:58;;;;;;;54.58;24.05;;;5.10;99.90;;;;;;5072596;28;20481;-75
2022/11/30 00:52:24;;;;;;;66.30;28.92;;;5.10;99.90;;;;;;5074182;28;20058;-75
2022/11/30 00:54:50;;;;;;;53.15;22.98;;;5.10;99.90;;;;;;5072949;28;20023;-76
2022/11/30 00:57:16;;;;;;;63.22;26.30;;;5.10;99.90;;;;;;5073915;28;20439;-74
2022/11/30 00:59:41;;;;;;;63.22;28.50;;;5.10;99.90;;;;;;5074376;28;20131;-73
2022/11/30 01:02:07;;;;;;;49.08;21.65;;;5.10;99.90;;;;;;5072628;28;20024;-75
2022/11/30 01:04:33;;;;;;;41.17;18.38;;;5.10;99.90;;;;;;5073579;28;20081;-74
2022/11/30 01:06:59;;;;;;;46.15;20.80;;;5.20;99.90;;;;;;5073946;28;20063;-73
2022/11/30 01:09:25;;;;;;;59.22;24.30;;;5.20;99.90;;;;;;5073846;28;20101;-74
2022/11/30 01:11:50;;;;;;;44.83;20.40;;;5.20;99.90;;;;;;5073730;28;20024;-74
2022/11/30 01:14:16;;;;;;;42.63;20.33;;;5.20;99.90;;;;;;5074150;28;20021;-73
2022/11/30 01:16:42;;;;;;;33.38;15.82;;;5.20;99.90;;;;;;5073743;28;20459;-75
2022/11/30 01:19:08;;;;;;;38.75;18.95;;;5.20;99.90;;;;;;5072766;28;20394;-74
2022/11/30 01:21:34;;;;;;;39.72;18.17;;;5.30;99.90;;;;;;5072766;28;20037;-74
2022/11/30 01:23:59;;;;;;;37.85;17.50;;;5.30;99.90;;;;;;5073258;28;20029;-74
2022/11/30 01:26:25;;;;;;;35.33;16.30;;;5.30;99.90;;;;;;5072869;28;20021;-76
2022/11/30 01:28:52;;;;;;;33.85;16.27;;;5.30;99.90;;;;;;5073276;28;20017;-74
2022/11/30 01:31:19;;;;;;;24.92;13.35;;;5.30;99.90;;;;;;5072958;28;20525;-75
2022/11/30 01:33:52;;;;;;;26.10;12.80;;;5.30;99.90;;;;;;5073022;28;20012;-74
2022/11/30 01:36:21;;;;;;;24.45;11.77;;;5.30;99.90;;;;;;5072961;28;20078;-74
2022/11/30 01:38:50;;;;;;;34.05;15.10;;;5.30;99.90;;;;;;5072437;28;20459;-73
2022/11/30 01:41:23;;;;;;;30.95;15.40;;;5.30;99.90;;;;;;5072766;28;20078;-73
2022/11/30 01:43:49;;;;;;;29.85;13.65;;;5.30;99.90;;;;;;5072843;28;20048;-74
2022/11/30 01:46:22;;;;;;;28.13;13.32;;;5.40;99.90;;;;;;5072770;28;20056;-73
2022/11/30 01:49:01;;;;;;;27.80;13.73;;;5.40;99.90;;;;;;5072558;28;20020;-75
2022/11/30 01:51:38;;;;;;;29.20;14.70;;;5.40;99.90;;;;;;5072893;28;20040;-76
2022/11/30 01:54:08;;;;;;;26.52;12.55;;;5.40;99.90;;;;;;5073021;28;20067;-73
2022/11/30 01:56:36;;;;;;;30.98;13.52;;;5.40;99.90;;;;;;5067954;28;20027;-75
2022/11/30 01:59:03;;;;;;;27.27;14.13;;;5.40;99.90;;;;;;5073000;28;20021;-75
2022/11/30 02:01:29;;;;;;;30.13;14.52;;;5.40;99.90;;;;;;5066539;28;20041;-74
2022/11/30 02:04:17;;;;;;;27.58;13.50;;;5.40;99.90;;;;;;5072787;28;20028;-74
2022/11/30 02:06:43;;;;;;;32.30;15.15;;;5.40;99.90;;;;;;5071900;28;20040;-73
2022/11/30 02:09:10;;;;;;;27.27;14.20;;;5.40;99.90;;;;;;5072677;28;20020;-74
2022/11/30 02:11:36;;;;;;;28.30;13.73;;;5.40;99.90;;;;;;5072893;28;20048;-74
2022/11/30 02:14:16;;;;;;;30.05;13.60;;;5.40;99.90;;;;;;5072168;28;20540;-75
2022/11/30 02:17:09;;;;;;;30.02;15.18;;;5.50;99.90;;;;;;5071477;28;20077;-74
2022/11/30 02:19:56;;;;;;;34.72;16.83;;;5.50;99.90;;;;;;5072596;28;20044;-74
2022/11/30 02:22:41;;;;;;;37.45;16.30;;;5.50;99.90;;;;;;5072603;28;20044;-74
2022/11/30 02:25:24;;;;;;;30.17;15.13;;;5.50;99.90;;;;;;5072495;28;20020;-75
2022/11/30 02:28:29;;;;;;;33.55;13.60;;;5.50;99.90;;;;;;5072504;28;20031;-74
2022/11/30 02:30:58;;;;;;;29.10;14.23;;;5.50;99.90;;;;;;5070864;28;20452;-74
2022/11/30 02:33:28;;;;;;;34.42;14.60;;;5.50;99.90;;;;;;5076128;28;20028;-73
2022/11/30 02:35:56;;;;;;;31.58;14.70;;;5.50;99.90;;;;;;5076013;28;20027;-74
2022/11/30 02:38:24;;;;;;;32.03;15.45;;;5.50;99.90;;;;;;5076095;28;20029;-74
2022/11/30 02:40:50;;;;;;;34.30;16.60;;;5.50;99.90;;;;;;5076041;28;20089;-75
2022/11/30 02:43:18;;;;;;;34.80;14.88;;;5.60;99.90;;;;;;5075912;28;20028;-74
2022/11/30 02:45:51;;;;;;;26.77;14.82;;;5.60;99.90;;;;;;5075860;28;20025;-74
2022/11/30 02:48:24;;;;;;;32.85;16.25;;;5.60;99.90;;;;;;5075464;28;20032;-76
2022/11/30 02:50:55;;;;;;;31.88;15.75;;;5.50;99.90;;;;;;5077006;28;20020;-75
2022/11/30 02:53:21;;;;;;;28.15;14.80;;;5.50;99.90;;;;;;5076348;28;20020;-74
2022/11/30 02:55:47;;;;;;;27.63;13.40;;;5.50;99.90;;;;;;5076192;28;20121;-75
2022/11/30 02:58:15;;;;;;;22.15;11.65;;;5.50;99.90;;;;;;5076344;28;20173;-75
2022/11/30 03:00:41;;;;;;;19.38;10.85;;;5.50;99.90;;;;;;5074828;28;20444;-74
2022/11/30 03:03:07;;;;;;;24.33;12.20;;;5.40;99.90;;;;;;5076277;28;20024;-74
2022/11/30 03:05:33;;;;;;;21.20;12.20;;;5.40;99.90;;;;;;5076228;28;20477;-75
2022/11/30 03:07:58;;;;;;;24.67;12.48;;;5.40;99.90;;;;;;5075785;28;20052;-75
2022/11/30 03:10:24;;;;;;;23.00;12.45;;;5.40;99.90;;;;;;5074605;28;20027;-75
2022/11/30 03:12:50;;;;;;;24.15;13.38;;;5.30;99.90;;;;;;5075780;28;20024;-74
2022/11/30 03:15:16;;;;;;;29.92;15.30;;;5.30;99.90;;;;;;5075562;28;20055;-75
2022/11/30 03:17:42;;;;;;;26.42;15.63;;;5.30;99.90;;;;;;5075463;28;20471;-75
2022/11/30 03:20:09;;;;;;;29.55;15.60;;;5.30;99.90;;;;;;5075423;28;20031;-74
2022/11/30 03:22:34;;;;;;;31.67;18.00;;;5.30;99.90;;;;;;5075018;28;20356;-75
2022/11/30 03:25:00;;;;;;;31.42;15.93;;;5.30;99.90;;;;;;5074859;28;20525;-77
2022/11/30 03:27:26;;;;;;;37.47;17.70;;;5.30;99.90;;;;;;5075111;28;20021;-75
2022/11/30 03:29:51;;;;;;;35.00;19.05;;;5.30;99.90;;;;;;5075062;28;20047;-76
2022/11/30 03:32:18;;;;;;;32.20;19.40;;;5.30;99.90;;;;;;5075036;28;20463;-75
2022/11/30 03:34:43;;;;;;;41.30;20.80;;;5.30;99.90;;;;;;5074675;28;20069;-75
2022/11/30 03:37:09;;;;;;;35.33;19.23;;;5.30;99.90;;;;;;5074972;28;20021;-75
2022/11/30 03:39:35;;;;;;;38.42;19.38;;;5.30;99.90;;;;;;5074609;28;20025;-73
2022/11/30 03:42:01;;;;;;;39.40;20.55;;;5.30;99.90;;;;;;5074671;28;20025;-74
2022/11/30 03:44:26;;;;;;;41.03;22.15;;;5.30;99.90;;;;;;5074526;28;20033;-76
2022/11/30 03:46:52;;;;;;;38.70;21.60;;;5.30;99.90;;;;;;5074670;28;20347;-75
2022/11/30 03:49:18;;;;;;;40.78;22.60;;;5.30;99.90;;;;;;5073988;28;20103;-74
2022/11/30 03:51:44;;;;;;;46.17;23.05;;;5.30;99.90;;;;;;5074408;28;20137;-76
2022/11/30 03:54:09;;;;;;;39.03;22.30;;;5.30;99.90;;;;;;5074570;28;20754;-75
2022/11/30 03:56:36;;;;;;;42.88;22.83;;;5.30;99.90;;;;;;5074086;28;20020;-75
2022/11/30 03:59:02;;;;;;;43.30;23.50;;;5.30;99.90;;;;;;5074337;28;20024;-75
2022/11/30 04:01:27;;;;;;;45.53;24.35;;;5.30;99.90;;;;;;5074149;28;20033;-77
2022/11/30 04:03:53;;;;;;;39.95;21.08;;;5.30;99.90;;;;;;5074577;28;20091;-75
2022/11/30 04:06:20;;;;;;;42.05;22.58;;;5.30;99.90;;;;;;5073936;28;20032;-76
2022/11/30 04:08:46;;;;;;;39.83;21.40;;;5.30;99.90;;;;;;5074122;28;20475;-75
2022/11/30 04:11:13;;;;;;;37.72;21.02;;;5.30;99.90;;;;;;5074326;28;20025;-75
2022/11/30 04:13:39;;;;;;;40.20;20.75;;;5.30;99.90;;;;;;5074143;28;20017;-74
2022/11/30 04:16:05;;;;;;;37.33;19.88;;;5.30;99.90;;;;;;5074035;28;20036;-74
2022/11/30 04:18:33;;;;;;;44.35;25.05;;;5.30;99.90;;;;;;5073749;28;20063;-76
2022/11/30 04:21:00;;;;;;;44.30;21.33;;;5.30;99.90;;;;;;5072121;28;20032;-75
2022/11/30 04:23:39;;;;;;;40.33;20.33;;;5.30;99.90;;;;;;5073912;28;20036;-76
2022/11/30 04:26:07;;;;;;;41.35;21.48;;;5.30;99.90;;;;;;5073970;28;20031;-75
2022/11/30 04:28:34;;;;;;;40.67;21.77;;;5.30;99.90;;;;;;5073378;28;20485;-76
2022/11/30 04:30:59;;;;;;;41.28;21.85;;;5.20;99.90;;;;;;5073563;28;20047;-75
2022/11/30 04:33:26;;;;;;;41.42;21.65;;;5.20;99.90;;;;;;5072794;28;20516;-75
2022/11/30 04:35:56;;;;;;;37.30;21.48;;;5.20;99.90;;;;;;5073761;28;20104;-75
2022/11/30 04:38:23;;;;;;;43.33;23.83;;;5.20;99.90;;;;;;5072753;28;20359;-75
2022/11/30 04:40:48;;;;;;;42.78;22.83;;;5.20;99.90;;;;;;5073624;28;20117;-75
2022/11/30 04:43:14;;;;;;;45.30;23.33;;;5.20;99.90;;;;;;5073780;28;20052;-76
2022/11/30 04:45:41;;;;;;;43.05;23.55;;;5.30;99.90;;;;;;5072884;28;20021;-76
2022/11/30 04:48:08;;;;;;;40.95;22.48;;;5.30;99.90;;;;;;5073582;28;20043;-75
2022/11/30 04:50:34;;;;;;;44.08;21.85;;;5.30;99.90;;;;;;5073760;28;20036;-75
2022/11/30 04:52:59;;;;;;;40.45;20.98;;;5.30;99.90;;;;;;5073531;28;20078;-75
2022/11/30 04:55:26;;;;;;;42.55;21.20;;;5.30;99.90;;;;;;5073967;28;20363;-76
2022/11/30 04:57:51;;;;;;;36.95;20.95;;;5.30;99.90;;;;;;5073277;28;20021;-75
2022/11/30 05:00:18;;;;;;;42.08;20.85;;;5.30;99.90;;;;;;5073063;28;20028;-75
2022/11/30 05:02:44;;;;;;;40.10;21.38;;;5.30;99.90;;;;;;5072980;28;20040;-74
2022/11/30 05:05:10;;;;;;;38.67;20.80;;;5.30;99.90;;;;;;5073694;28;20035;-77
2022/11/30 05:07:37;;;;;;;39.50;21.90;;;5.20;99.90;;;;;;5072658;28;20137;-75
2022/11/30 05:10:04;;;;;;;40.67;22.45;;;5.20;99.90;;;;;;5072582;28;20120;-75
2022/11/30 05:12:30;;;;;;;43.17;22.23;;;5.20;99.90;;;;;;5073089;28;20082;-75
2022/11/30 05:14:55;;;;;;;40.40;21.33;;;5.20;99.90;;;;;;5073071;28;20037;-74
2022/11/30 05:17:22;;;;;;;38.95;20.70;;;5.20;99.90;;;;;;5072288;28;20024;-76
2022/11/30 05:19:47;;;;;;;38.33;20.40;;;5.20;99.90;;;;;;5072773;28;20016;-74
2022/11/30 05:22:13;;;;;;;37.40;20.63;;;5.30;99.90;;;;;;5072892;28;20040;-73
2022/11/30 05:24:39;;;;;;;36.13;20.13;;;5.20;99.90;;;;;;5072297;28;20348;-75
2022/11/30 05:27:05;;;;;;;34.95;18.67;;;5.30;99.90;;;;;;5073051;28;20459;-73
2022/11/30 05:29:33;;;;;;;37.75;18.98;;;5.20;99.90;;;;;;5073022;28;20043;-74
2022/11/30 05:32:00;;;;;;;38.78;20.48;;;5.30;99.90;;;;;;5068071;28;20460;-73
2022/11/30 05:34:26;;;;;;;36.75;19.50;;;5.30;99.90;;;;;;5071193;28;20046;-73
2022/11/30 05:36:52;;;;;;;32.65;18.98;;;5.30;99.90;;;;;;5072804;28;20032;-72
2022/11/30 05:39:18;;;;;;;34.42;18.30;;;5.30;99.90;;;;;;5072914;28;20031;-72
2022/11/30 05:41:44;;;;;;;37.50;19.23;;;5.30;99.90;;;;;;5072939;28;20040;-75
2022/11/30 05:44:10;;;;;;;35.13;19.33;;;5.40;99.90;;;;;;5072767;28;20482;-73
2022/11/30 05:46:36;;;;;;;37.88;20.65;;;5.40;99.90;;;;;;5072835;28;20043;-75
2022/11/30 05:49:02;;;;;;;37.50;19.85;;;5.40;99.90;;;;;;5072885;28;20048;-73
2022/11/30 05:51:28;;;;;;;30.77;18.02;;;5.40;99.90;;;;;;5072333;28;20111;-75
2022/11/30 05:53:54;;;;;;;31.48;16.75;;;5.40;99.90;;;;;;5072000;28;20103;-75
2022/11/30 05:56:20;;;;;;;35.03;17.73;;;5.40;99.90;;;;;;5073459;28;20021;-73
2022/11/30 05:58:46;;;;;;;30.70;17.15;;;5.40;99.90;;;;;;5073293;28;20020;-74
2022/11/30 06:01:20;;;;;;;34.17;17.38;;;5.40;99.90;;;;;;5073437;28;20033;-74
2022/11/30 06:03:46;;;;;;;33.85;18.05;;;5.40;99.90;;;;;;5073306;28;20095;-73
2022/11/30 06:06:12;;;;;;;32.47;18.30;;;5.40;99.90;;;;;;5075351;28;20100;-77
2022/11/30 06:08:37;;;;;;;29.77;15.75;;;5.40;99.90;;;;;;5076933;28;20023;-74
2022/11/30 06:11:03;;;;;;;36.58;18.52;;;5.40;99.90;;;;;;5077232;28;20028;-73
2022/11/30 06:13:31;;;;;;;37.55;20.80;;;5.40;99.90;;;;;;5076715;28;20078;-75
2022/11/30 06:16:04;;;;;;;46.83;23.63;;;5.40;99.90;;;;;;5077041;28;20375;-77
2022/11/30 06:18:30;;;;;;;48.42;23.80;;;5.40;99.90;;;;;;5076619;28;20020;-74
2022/11/30 06:21:05;;;;;;;51.67;23.90;;;5.40;99.90;;;;;;5076593;28;20029;-76
2022/11/30 06:23:31;;;;;;;41.92;19.63;;;5.40;99.90;;;;;;5077023;28;20395;-75
2022/11/30 06:25:57;;;;;;;43.38;22.15;;;5.40;99.90;;;;;;5076488;28;20028;-75
2022/11/30 06:28:23;;;;;;;45.22;21.67;;;5.40;99.90;;;;;;5077173;28;20021;-75
2022/11/30 06:30:49;;;;;;;46.35;24.77;;;5.40;99.90;;;;;;5076813;28;20025;-76
2022/11/30 06:33:15;;;;;;;52.70;24.55;;;5.50;99.90;;;;;;5076458;28;20020;-76
2022/11/30 06:35:45;;;;;;;69.30;31.17;;;5.50;99.90;;;;;;5076791;28;20025;-75
2022/11/30 06:38:11;;;;;;;69.50;32.90;;;5.50;99.90;;;;;;5076555;28;20029;-75
2022/11/30 06:40:37;;;;;;;93.32;43.28;;;5.50;99.90;;;;;;5076090;28;20455;-75
2022/11/30 06:43:03;;;;;;;71.60;35.90;;;5.50;99.90;;;;;;5076390;28;20040;-76
2022/11/30 06:45:30;;;;;;;57.88;28.45;;;5.50;99.90;;;;;;5076249;28;20021;-76
2022/11/30 06:47:56;;;;;;;63.78;30.08;;;5.60;99.90;;;;;;5076567;28;20027;-74
2022/11/30 06:50:23;;;;;;;73.45;34.08;;;5.60;99.90;;;;;;5076340;28;20486;-75
2022/11/30 06:52:49;;;;;;;81.45;39.60;;;5.60;99.90;;;;;;5076173;28;20020;-75
2022/11/30 06:55:14;;;;;;;68.65;33.60;;;5.60;99.90;;;;;;5076191;28;20101;-74
2022/11/30 06:57:40;;;;;;;89.97;42.05;;;5.60;99.90;;;;;;5076580;28;20028;-75
2022/11/30 07:00:07;;;;;;;66.07;31.60;;;5.60;99.90;;;;;;5076040;28;20020;-74
2022/11/30 07:02:33;;;;;;;72.43;32.42;;;5.70;99.90;;;;;;5075989;28;20020;-75
2022/11/30 07:04:59;;;;;;;65.90;32.75;;;5.70;99.90;;;;;;5076141;28;20367;-74
2022/11/30 07:07:27;;;;;;;79.47;36.05;;;5.70;99.90;;;;;;5076037;28;20478;-73
2022/11/30 07:09:52;;;;;;;84.25;40.10;;;5.80;99.90;;;;;;5076407;28;20047;-76
2022/11/30 07:12:18;;;;;;;89.88;41.03;;;5.80;99.90;;;;;;5075970;28;20158;-75
2022/11/30 07:14:44;;;;;;;107.43;49.40;;;5.80;99.90;;;;;;5075376;28;20110;-74
2022/11/30 07:17:10;;;;;;;123.88;54.28;;;5.90;99.90;;;;;;5075879;28;20154;-75
2022/11/30 07:19:36;;;;;;;108.28;49.78;;;5.90;99.90;;;;;;5075721;28;20024;-73
2022/11/30 07:22:01;;;;;;;76.07;35.28;;;6.00;99.90;;;;;;5075650;28;20481;-75
2022/11/30 07:27:12;;;;;;;47.85;21.55;;;6.00;99.90;;;;;;5075759;28;20026;-74
2022/11/30 07:29:38;;;;;;;39.13;17.80;;;6.00;99.90;;;;;;5075347;28;20032;-76
2022/11/30 07:32:04;;;;;;;29.67;13.40;;;6.10;99.90;;;;;;5075776;28;20024;-74
2022/11/30 07:34:30;;;;;;;27.45;12.25;;;6.10;99.90;;;;;;5075345;28;20020;-75
2022/11/30 07:36:56;;;;;;;31.23;12.82;;;6.10;99.90;;;;;;5075699;28;20024;-74
2022/11/30 07:39:23;;;;;;;36.85;16.08;;;6.20;99.90;;;;;;5075432;28;20052;-75
2022/11/30 07:41:49;;;;;;;38.05;15.43;;;6.20;99.90;;;;;;5075711;28;20028;-74
2022/11/30 07:44:14;;;;;;;32.45;14.13;;;6.20;99.90;;;;;;5075251;28;20504;-75
2022/11/30 07:46:40;;;;;;;48.40;18.83;;;6.30;99.90;;;;;;5074069;28;20517;-74
2022/11/30 07:49:08;;;;;;;84.00;30.02;;;6.30;99.90;;;;;;5075366;28;20020;-75
2022/11/30 07:51:35;;;;;;;153.82;57.90;;;6.40;99.90;;;;;;5074763;28;20064;-74
2022/11/30 07:54:01;;;;;;;140.35;78.38;;;6.40;99.90;;;;;;5074908;28;20348;-75
2022/11/30 07:56:28;;;;;;;134.65;47.25;;;6.40;99.90;;;;;;5075178;28;20028;-76
2022/11/30 07:58:58;;;;;;;47.08;21.17;;;6.50;99.90;;;;;;5074953;28;20502;-74
2022/11/30 08:01:27;;;;;;;27.80;13.20;;;6.50;99.90;;;;;;5075090;28;20032;-74
2022/11/30 08:03:54;;;;;;;31.88;17.00;;;6.50;99.90;;;;;;5074611;28;20162;-74
2022/11/30 08:06:22;;;;;;;35.50;18.92;;;6.50;99.90;;;;;;5074753;28;20025;-74
2022/11/30 08:08:50;;;;;;;55.13;29.65;;;6.60;99.90;;;;;;5074662;28;20027;-74
2022/11/30 08:11:22;;;;;;;39.25;16.52;;;6.70;99.90;;;;;;5072938;28;20028;-74
2022/11/30 08:13:48;;;;;;;52.30;26.38;;;6.70;99.90;;;;;;5073247;28;20016;-73
2022/11/30 08:16:16;;;;;;;78.50;31.35;;;6.60;99.90;;;;;;5073754;28;20463;-74
2022/11/30 08:18:43;;;;;;;91.88;38.13;;;6.70;99.90;;;;;;5074202;28;20030;-76
2022/11/30 08:21:11;;;;;;;34.67;16.77;;;6.80;99.90;;;;;;5074284;28;20447;-74
2022/11/30 08:23:40;;;;;;;61.47;28.73;;;6.80;99.90;;;;;;5074255;28;20075;-74
2022/11/30 08:26:12;;;;;;;41.97;18.63;;;6.90;99.90;;;;;;5074374;28;20332;-75
2022/11/30 08:28:38;;;;;;;35.78;18.52;;;6.90;99.90;;;;;;5073768;28;20520;-75
2022/11/30 08:31:08;;;;;;;36.67;18.15;;;7.00;99.90;;;;;;5074592;28;20064;-73
2022/11/30 08:33:35;;;;;;;16.50;7.38;;;7.20;99.90;;;;;;5073127;28;20074;-76
2022/11/30 08:36:14;;;;;;;17.63;8.93;;;7.10;99.90;;;;;;5074368;28;20021;-75
2022/11/30 08:38:41;;;;;;;18.20;7.03;;;7.20;99.90;;;;;;5074617;28;20082;-74
2022/11/30 08:41:09;;;;;;;27.38;12.88;;;7.30;99.90;;;;;;5073250;28;20428;-75
2022/11/30 08:43:35;;;;;;;34.92;13.38;;;7.30;99.90;;;;;;5073963;28;20107;-76
2022/11/30 08:46:03;;;;;;;27.88;14.80;;;7.40;99.90;;;;;;5074045;28;20108;-74
2022/11/30 08:48:29;;;;;;;24.33;11.85;;;7.40;99.90;;;;;;5074869;28;20027;-74
2022/11/30 08:51:01;;;;;;;21.80;9.15;;;7.40;99.90;;;;;;5074237;28;20028;-73
2022/11/30 08:53:27;;;;;;;37.03;17.20;;;7.50;99.90;;;;;;5071654;28;20013;-74
2022/11/30 08:56:01;;;;;;;21.02;9.27;;;7.50;99.90;;;;;;5073312;28;20116;-75
2022/11/30 08:58:29;;;;;;;16.83;8.40;;;7.40;99.90;;;;;;5074247;28;20035;-74
2022/11/30 09:01:14;;;;;;;19.40;9.05;;;7.40;99.90;;;;;;5072469;28;20052;-74
2022/11/30 09:03:41;;;;;;;48.42;19.50;;;7.40;99.90;;;;;;5074051;28;20060;-74
2022/11/30 09:06:11;;;;;;;34.45;12.45;;;7.50;99.90;;;;;;5073360;28;20028;-73
2022/11/30 09:08:38;;;;;;;26.30;12.65;;;7.40;99.90;;;;;;5072069;28;20024;-73
2022/11/30 09:11:11;;;;;;;64.60;26.05;;;7.50;99.90;;;;;;5073017;28;20115;-75
2022/11/30 09:13:37;;;;;;;25.02;11.80;;;7.50;99.90;;;;;;5073493;28;20112;-75
2022/11/30 09:16:03;;;;;;;29.42;10.13;;;7.60;99.90;;;;;;5073278;28;20036;-74
2022/11/30 09:18:29;;;;;;;59.97;24.05;;;7.70;99.90;;;;;;5073166;28;20017;-73
2022/11/30 09:21:04;;;;;;;34.63;13.88;;;7.90;99.90;;;;;;5073389;28;20478;-74
2022/11/30 09:23:30;;;;;;;19.67;9.40;;;7.90;99.90;;;;;;5074062;28;20029;-74
2022/11/30 09:25:57;;;;;;;49.22;24.13;;;7.90;99.90;;;;;;5073744;28;20028;-73
2022/11/30 09:28:24;;;;;;;55.33;26.75;;;8.00;99.90;;;;;;5073616;28;20035;-74
2022/11/30 09:30:50;;;;;;;29.92;14.25;;;8.10;99.90;;;;;;5073520;28;20371;-74
2022/11/30 09:33:16;;;;;;;32.40;12.30;;;8.30;99.90;;;;;;5073685;28;20099;-73
2022/11/30 09:35:42;;;;;;;30.85;12.70;;;8.30;99.90;;;;;;5073565;28;20091;-74
2022/11/30 09:38:07;;;;;;;35.05;16.20;;;8.40;99.90;;;;;;5073739;28;20018;-74
2022/11/30 09:40:37;;;;;;;29.95;13.98;;;8.50;99.90;;;;;;5076547;28;20476;-73
2022/11/30 09:43:15;;;;;;;74.18;44.45;;;8.50;99.90;;;;;;5077280;28;20031;-74
2022/11/30 09:45:47;;;;;;;80.45;44.63;;;8.60;99.90;;;;;;5077691;28;20463;-73
2022/11/30 09:48:31;;;;;;;;;;;8.40;99.90;;;;;;5077873;28;20033;-74
2022/11/30 09:51:02;;;;;;;62.35;32.13;;;8.30;99.90;;;;;;5077664;28;19942;-75
2022/11/30 09:53:40;;;;;;;31.08;15.38;;;8.30;99.90;;;;;;5077555;28;20052;-74
2022/11/30 09:56:22;;;;;;;27.85;14.15;;;8.30;99.90;;;;;;5077392;28;20129;-75
2022/11/30 09:59:11;;;;;;;25.83;11.85;;;8.30;99.90;;;;;;5077244;28;20455;-73
2022/11/30 10:01:36;;;;;;;26.70;12.30;;;8.20;99.90;;;;;;5076454;28;20037;-74
2022/11/30 10:04:02;;;;;;;86.20;30.45;;;8.10;99.90;;;;;;5075937;28;20040;-75
2022/11/30 10:06:46;;;;;;;35.00;14.07;;;8.10;99.90;;;;;;5076995;28;20146;-74
2022/11/30 10:09:33;;;;;;;37.58;18.48;;;8.10;99.90;;;;;;5077114;28;20024;-73
2022/11/30 10:12:27;;;;;;;58.97;24.48;;;8.00;99.90;;;;;;5077313;28;20067;-74
2022/11/30 10:15:25;;;;;;;24.10;11.13;;;8.00;99.90;;;;;;5074666;28;20044;-74
2022/11/30 10:17:56;;;;;;;23.77;11.73;;;8.00;99.90;;;;;;5076660;28;20012;-75
2022/11/30 10:20:35;;;;;;;47.95;18.42;;;8.10;99.90;;;;;;5077122;28;20052;-74
2022/11/30 10:23:38;;;;;;;29.38;13.65;;;8.10;99.90;;;;;;5077047;28;20086;-75
2022/11/30 10:26:07;;;;;;;29.80;11.88;;;8.20;99.90;;;;;;5076671;28;20058;-74
2022/11/30 10:28:38;;;;;;;25.60;12.55;;;8.20;99.90;;;;;;5076844;28;20086;-74
2022/11/30 10:31:09;;;;;;;27.10;11.45;;;8.10;99.90;;;;;;5076760;28;20055;-75
2022/11/30 10:33:44;;;;;;;26.02;11.95;;;8.10;99.90;;;;;;5076755;28;20058;-74
2022/11/30 10:36:18;;;;;;;26.85;14.15;;;8.10;99.90;;;;;;5076521;28;20016;-73
2022/11/30 10:38:49;;;;;;;46.85;22.73;;;8.10;99.90;;;;;;5076600;28;20020;-74
2022/11/30 10:41:17;;;;;;;39.22;18.13;;;8.00;99.90;;;;;;5076496;28;20025;-75
2022/11/30 10:44:05;;;;;;;44.70;19.85;;;8.00;99.90;;;;;;5076585;28;20024;-73
2022/11/30 10:46:42;;;;;;;28.58;12.93;;;8.00;99.90;;;;;;5076397;28;20090;-73
2022/11/30 10:49:17;;;;;;;33.70;17.83;;;8.10;99.90;;;;;;5076467;28;20025;-73
2022/11/30 10:51:49;;;;;;;39.95;17.75;;;8.20;99.90;;;;;;5075245;28;20028;-73
2022/11/30 10:54:18;;;;;;;26.55;14.63;;;8.40;99.90;;;;;;5076328;28;20021;-74
2022/11/30 10:56:45;;;;;;;42.55;21.25;;;8.40;99.90;;;;;;5076325;28;20052;-76
2022/11/30 10:59:28;;;;;;;71.15;37.00;;;8.40;99.90;;;;;;5076490;28;20082;-76
2022/11/30 11:01:53;;;;;;;41.95;20.73;;;8.50;99.90;;;;;;5076134;28;20060;-74
2022/11/30 11:04:24;;;;;;;91.78;44.58;;;8.50;99.90;;;;;;5075914;28;20059;-74
2022/11/30 11:06:55;;;;;;;132.70;63.75;;;8.40;99.90;;;;;;5076066;28;20024;-74
2022/11/30 11:10:00;;;;;;;106.95;50.25;;;8.40;99.90;;;;;;5075710;28;20383;-74
2022/11/30 11:12:29;;;;;;;64.22;32.78;;;8.50;99.90;;;;;;5076078;28;20021;-74
2022/11/30 11:15:22;;;;;;;34.10;17.80;;;8.50;99.90;;;;;;5075627;28;20040;-74
2022/11/30 11:17:48;;;;;;;37.75;18.13;;;8.70;99.90;;;;;;5075990;28;20021;-75
2022/11/30 11:20:31;;;;;;;64.85;33.28;;;8.80;99.90;;;;;;5075922;28;20027;-75
2022/11/30 11:22:57;;;;;;;14.73;8.27;;;9.00;99.90;;;;;;5075758;28;20039;-75
2022/11/30 11:25:43;;;;;;;34.70;18.42;;;9.10;99.90;;;;;;5076069;28;20028;-74
2022/11/30 11:28:17;;;;;;;88.60;43.22;;;9.40;99.90;;;;;;5075488;28;20121;-75
2022/11/30 11:30:43;;;;;;;78.38;37.35;;;9.50;99.90;;;;;;5075519;28;20147;-75
2022/11/30 11:33:12;;;;;;;77.07;36.67;;;9.30;99.90;;;;;;5076030;28;20099;-74
2022/11/30 11:35:49;;;;;;;73.53;36.22;;;9.20;99.90;;;;;;5075495;28;20460;-75
2022/11/30 11:38:29;;;;;;;153.57;60.67;;;9.30;99.90;;;;;;5075969;28;20107;-75
2022/11/30 11:41:04;;;;;;;114.28;53.28;;;9.30;99.90;;;;;;5075316;28;20056;-74
2022/11/30 11:43:32;;;;;;;55.20;30.17;;;9.30;99.90;;;;;;5075645;28;20059;-75
2022/11/30 11:46:11;;;;;;;61.53;29.42;;;9.20;99.90;;;;;;5075379;28;20024;-74
2022/11/30 11:48:59;;;;;;;105.05;47.17;;;9.30;99.90;;;;;;5075599;28;20017;-75
2022/11/30 11:51:30;;;;;;;80.82;34.80;;;9.30;99.90;;;;;;5075407;28;20463;-75
2022/11/30 11:54:00;;;;;;;83.72;36.35;;;9.40;99.90;;;;;;5075421;28;20474;-75
2022/11/30 11:56:32;;;;;;;132.70;61.55;;;9.30;99.90;;;;;;5074749;28;20024;-74
2022/11/30 11:59:01;;;;;;;108.78;48.92;;;9.20;99.90;;;;;;5075175;28;20443;-74
2022/11/30 12:01:30;;;;;;;168.82;72.25;;;9.20;99.90;;;;;;5074914;28;20070;-74
2022/11/30 12:04:01;;;;;;;181.18;84.40;;;9.20;99.90;;;;;;5075359;28;20083;-75
2022/11/30 12:06:28;;;;;;;56.58;25.35;;;9.20;99.90;;;;;;5075078;28;20057;-74
2022/11/30 12:09:02;;;;;;;118.65;52.22;;;9.20;99.90;;;;;;5074813;28;20016;-74
2022/11/30 12:11:42;;;;;;;109.78;45.92;;;9.00;99.90;;;;;;5075222;28;20029;-75
2022/11/30 12:14:14;;;;;;;37.85;19.23;;;9.00;99.90;;;;;;5074876;28;20023;-74
2022/11/30 12:16:53;;;;;;;115.70;56.03;;;9.00;99.90;;;;;;5074845;28;20133;-74
2022/11/30 12:19:40;;;;;;;89.65;44.13;;;8.80;99.90;;;;;;5074864;28;20032;-74
2022/11/30 12:22:43;;;;;;;60.60;29.67;;;8.70;99.90;;;;;;5074452;28;20348;-75
2022/11/30 12:25:09;;;;;;;39.00;20.20;;;8.70;99.90;;;;;;5074460;28;20509;-74
2022/11/30 12:27:53;;;;;;;44.17;22.38;;;8.70;99.90;;;;;;5074654;28;20028;-75
2022/11/30 12:30:25;;;;;;;50.22;24.45;;;8.60;99.90;;;;;;5074816;28;20044;-75
2022/11/30 12:33:09;;;;;;;36.47;17.60;;;8.60;99.90;;;;;;5074582;28;20082;-75
2022/11/30 12:35:48;;;;;;;49.50;24.23;;;8.60;99.90;;;;;;5074449;28;20030;-75
2022/11/30 12:38:24;;;;;;;37.33;21.33;;;8.60;99.90;;;;;;5074036;28;20090;-75
2022/11/30 12:41:02;;;;;;;31.65;17.60;;;8.60;99.90;;;;;;5074029;28;20029;-75
2022/11/30 12:43:52;;;;;;;23.92;13.32;;;8.60;99.90;;;;;;5073865;28;20020;-75
2022/11/30 12:46:24;;;;;;;77.68;42.25;;;8.70;99.90;;;;;;5074210;28;20055;-76
2022/11/30 12:48:57;;;;;;;49.70;26.58;;;8.70;99.90;;;;;;5073986;28;20031;-74
2022/11/30 12:51:36;;;;;;;81.65;40.20;;;8.70;99.90;;;;;;5074163;28;20024;-75